| time (UTC) | temp F | wind direction | speed MPH | gust MPH | rain 1hr in | rain 24hr in | rain mn in | humidity % | barometer mb |
| 20260508203037 | 72 | 261 | 5.0 | 11.0 | 0.00 | 0.00 | 0.00 | 45 | 1011.4 |
| 20260508201536 | 71 | 205 | 6.0 | 12.0 | 0.00 | 0.00 | 0.00 | 41 | 1011.4 |
| 20260508200043 | 71 | 229 | 5.0 | 10.0 | 0.00 | 0.00 | 0.00 | 43 | 1011.6 |
| 20260508194538 | 71 | 216 | 6.0 | 13.0 | 0.00 | 0.00 | 0.00 | 43 | 1011.7 |
| 20260508193045 | 71 | 220 | 3.0 | 9.0 | 0.00 | 0.00 | 0.00 | 44 | 1012.0 |
| 20260508191540 | 71 | 221 | 4.0 | 12.0 | 0.00 | 0.00 | 0.00 | 45 | 1012.1 |
| 20260508190036 | 70 | 194 | 6.0 | 14.0 | 0.00 | 0.00 | 0.00 | 48 | 1012.5 |
| 20260508184542 | 70 | 225 | 3.0 | 12.0 | 0.00 | 0.00 | 0.00 | 50 | 1012.8 |
| 20260508183041 | 69 | 229 | 5.0 | 15.0 | 0.00 | 0.00 | 0.00 | 49 | 1012.9 |
| 20260508181540 | 69 | 205 | 5.0 | 14.0 | 0.00 | 0.00 | 0.00 | 47 | 1013.2 |
| 20260508180038 | 69 | 225 | 3.0 | 10.0 | 0.00 | 0.00 | 0.00 | 48 | 1013.4 |
| 20260508174539 | 68 | 192 | 3.0 | 12.0 | 0.00 | 0.00 | 0.00 | 54 | 1013.7 |
| 20260508173041 | 68 | 240 | 5.0 | 11.0 | 0.00 | 0.00 | 0.00 | 47 | 1014.2 |
| 20260508171542 | 68 | 229 | 3.0 | 10.0 | 0.00 | 0.00 | 0.00 | 52 | 1014.5 |
| 20260508170040 | 67 | 0 | 3.0 | 11.0 | 0.00 | 0.00 | 0.00 | 56 | 1014.8 |
| 20260508164537 | 67 | 221 | 3.0 | 8.0 | 0.00 | 0.00 | 0.00 | 53 | 1015.1 |
| 20260508163039 | 66 | 225 | 3.0 | 10.0 | 0.00 | 0.00 | 0.00 | 52 | 1015.4 |
| 20260508161545 | 66 | 244 | 3.0 | 11.0 | 0.00 | 0.00 | 0.00 | 57 | 1015.5 |
| 20260508160044 | 65 | 190 | 4.0 | 9.0 | 0.00 | 0.00 | 0.00 | 56 | 1015.7 |
| 20260508154541 | 64 | 239 | 5.0 | 10.0 | 0.00 | 0.00 | 0.00 | 57 | 1015.8 |
| 20260508153042 | 63 | 259 | 4.0 | 10.0 | 0.00 | 0.00 | 0.00 | 57 | 1015.9 |
| 20260508151538 | 63 | 205 | 3.0 | 10.0 | 0.00 | 0.00 | 0.00 | 60 | 1016.0 |
| 20260508150037 | 62 | 230 | 3.0 | 9.0 | 0.00 | 0.00 | 0.00 | 60 | 1016.1 |
| 20260508144537 | 61 | 205 | 4.0 | 11.0 | 0.00 | 0.00 | 0.00 | 60 | 1016.0 |
| 20260508143040 | 60 | 255 | 5.0 | 11.0 | 0.00 | 0.00 | 0.00 | 58 | 1016.1 |
| 20260508141543 | 59 | 217 | 4.0 | 9.0 | 0.00 | 0.00 | 0.00 | 62 | 1016.0 |
| 20260508140043 | 58 | 227 | 3.0 | 7.0 | 0.00 | 0.00 | 0.00 | 64 | 1016.0 |
| 20260508134542 | 56 | 225 | 2.0 | 8.0 | 0.00 | 0.00 | 0.00 | 67 | 1016.0 |
| 20260508133039 | 55 | 221 | 2.0 | 9.0 | 0.00 | 0.00 | 0.00 | 70 | 1016.1 |
| 20260508131541 | 53 | 221 | 3.0 | 7.0 | 0.00 | 0.00 | 0.00 | 71 | 1016.1 |
| 20260508130045 | 51 | 190 | 1.0 | 4.0 | 0.00 | 0.00 | 0.00 | 77 | 1015.9 |
| 20260508124542 | 49 | 221 | 1.0 | 5.0 | 0.00 | 0.00 | 0.00 | 82 | 1016.1 |
| 20260508123038 | 46 | 207 | 1.0 | 4.0 | 0.00 | 0.00 | 0.00 | 89 | 1016.0 |
| 20260508121542 | 43 | 69 | 0.0 | 2.0 | 0.00 | 0.00 | 0.00 | 92 | 1016.0 |
| 20260508120042 | 40 | 0 | 0.0 | 0.0 | 0.00 | 0.00 | 0.00 | 90 | 1016.0 |
| 20260508114602 | 39 | 0 | 0.0 | 1.0 | 0.00 | 0.00 | 0.00 | 90 | 1015.8 |
| 20260508113043 | 39 | 0 | 0.0 | 0.0 | 0.00 | 0.00 | 0.00 | 89 | 1015.6 |
| 20260508111557 | 39 | 0 | 0.0 | 0.0 | 0.00 | 0.00 | 0.00 | 89 | 1015.5 |
| 20260508110041 | 39 | 0 | 0.0 | 0.0 | 0.00 | 0.00 | 0.00 | 89 | 1015.3 |
| 20260508104538 | 39 | 0 | 0.0 | 0.0 | 0.00 | 0.00 | 0.00 | 88 | 1015.2 |
| 20260508103041 | 39 | 0 | 0.0 | 0.0 | 0.00 | 0.00 | 0.00 | 89 | 1015.2 |
| 20260508101541 | 39 | 0 | 0.0 | 0.0 | 0.00 | 0.00 | 0.00 | 90 | 1015.1 |
| 20260508100043 | 38 | 0 | 0.0 | 0.0 | 0.00 | 0.00 | 0.00 | 90 | 1014.9 |
| 20260508094545 | 38 | 0 | 0.0 | 0.0 | 0.00 | 0.00 | 0.00 | 91 | 1015.1 |
| 20260508093041 | 38 | 0 | 0.0 | 0.0 | 0.00 | 0.00 | 0.00 | 92 | 1015.1 |
| 20260508091544 | 38 | 0 | 0.0 | 0.0 | 0.00 | 0.00 | 0.00 | 92 | 1015.1 |
| 20260508090042 | 37 | 0 | 0.0 | 0.0 | 0.00 | 0.00 | 0.00 | 93 | 1015.2 |
| 20260508084539 | 37 | 0 | 0.0 | 0.0 | 0.00 | 0.00 | 0.00 | 93 | 1015.2 |
| 20260508083049 | 37 | 0 | 0.0 | 0.0 | 0.00 | 0.00 | 0.00 | 93 | 1015.2 |
| 20260508081547 | 37 | 0 | 0.0 | 0.0 | 0.00 | 0.00 | 0.00 | 92 | 1015.1 |
| 20260508080041 | 37 | 0 | 0.0 | 0.0 | 0.00 | 0.00 | 0.00 | 92 | 1015.3 |
| 20260508074543 | 37 | 0 | 0.0 | 0.0 | 0.00 | 0.00 | 0.00 | 92 | 1015.1 |
| 20260508073038 | 37 | 0 | 0.0 | 0.0 | 0.00 | 0.00 | 0.00 | 91 | 1015.2 |
| 20260508071536 | 37 | 0 | 0.0 | 0.0 | 0.00 | 0.00 | 0.00 | 91 | 1015.2 |
| 20260508070044 | 38 | 0 | 0.0 | 0.0 | 0.00 | 0.00 | 0.00 | 91 | 1015.1 |
| 20260508064542 | 38 | 0 | 0.0 | 0.0 | 0.00 | 0.00 | 0.00 | 91 | 1015.1 |
| 20260508063044 | 38 | 0 | 0.0 | 0.0 | 0.00 | 0.00 | 0.00 | 91 | 1015.1 |
| 20260508061539 | 39 | 0 | 0.0 | 0.0 | 0.00 | 0.00 | 0.00 | 91 | 1015.2 |
| 20260508060038 | 39 | 0 | 0.0 | 0.0 | 0.00 | 0.00 | 0.00 | 91 | 1015.4 |
| 20260508054543 | 39 | 0 | 0.0 | 0.0 | 0.00 | 0.00 | 0.00 | 90 | 1015.5 |
| 20260508053055 | 39 | 0 | 0.0 | 0.0 | 0.00 | 0.00 | 0.00 | 90 | 1015.6 |
| 20260508051547 | 40 | 0 | 0.0 | 0.0 | 0.00 | 0.00 | 0.00 | 89 | 1015.6 |
| 20260508050042 | 40 | 0 | 0.0 | 0.0 | 0.00 | 0.00 | 0.00 | 89 | 1015.6 |
| 20260508044538 | 40 | 0 | 0.0 | 0.0 | 0.00 | 0.00 | 0.00 | 88 | 1015.4 |
| 20260508043043 | 40 | 0 | 0.0 | 0.0 | 0.00 | 0.00 | 0.00 | 86 | 1015.3 |
| 20260508041539 | 41 | 0 | 0.0 | 0.0 | 0.00 | 0.00 | 0.00 | 86 | 1015.3 |
| 20260508040045 | 42 | 0 | 0.0 | 0.0 | 0.00 | 0.00 | 0.00 | 86 | 1015.4 |
| 20260508034547 | 42 | 0 | 0.0 | 0.0 | 0.00 | 0.00 | 0.00 | 84 | 1015.5 |
| 20260508033041 | 42 | 0 | 0.0 | 0.0 | 0.00 | 0.00 | 0.00 | 82 | 1015.6 |
| 20260508031538 | 43 | 0 | 0.0 | 0.0 | 0.00 | 0.00 | 0.00 | 81 | 1015.7 |
| 20260508030038 | 44 | 0 | 0.0 | 0.0 | 0.00 | 0.00 | 0.00 | 79 | 1015.5 |
| 20260508024554 | 45 | 0 | 0.0 | 0.0 | 0.00 | 0.00 | 0.00 | 79 | 1015.4 |
| 20260508023042 | 45 | 0 | 0.0 | 0.0 | 0.00 | 0.00 | 0.00 | 78 | 1015.4 |
| 20260508021538 | 47 | 0 | 0.0 | 0.0 | 0.00 | 0.00 | 0.00 | 77 | 1015.3 |
| 20260508020040 | 48 | 0 | 0.0 | 0.0 | 0.00 | 0.00 | 0.00 | 75 | 1015.2 |
| 20260508014538 | 49 | 0 | 0.0 | 0.0 | 0.00 | 0.00 | 0.00 | 71 | 1014.7 |
| 20260508013038 | 51 | 0 | 0.0 | 0.0 | 0.00 | 0.00 | 0.00 | 68 | 1014.7 |
| 20260508011543 | 53 | 0 | 0.0 | 0.0 | 0.00 | 0.00 | 0.00 | 64 | 1014.5 |
| 20260508010042 | 55 | 0 | 0.0 | 0.0 | 0.00 | 0.00 | 0.00 | 61 | 1014.3 |
| 20260508004543 | 57 | 0 | 0.0 | 0.0 | 0.00 | 0.00 | 0.00 | 51 | 1014.0 |
| 20260508003038 | 58 | 0 | 0.0 | 0.0 | 0.00 | 0.00 | 0.00 | 48 | 1014.0 |
| 20260508001538 | 60 | 0 | 0.0 | 2.0 | 0.00 | 0.00 | 0.00 | 46 | 1013.8 |
| 20260508000037 | 60 | 0 | 0.0 | 7.0 | 0.00 | 0.00 | 0.00 | 43 | 1013.6 |
| 20260507234549 | 60 | 276 | 2.0 | 7.0 | 0.00 | 0.00 | 0.00 | 42 | 1013.5 |
| 20260507233038 | 61 | 263 | 3.0 | 9.0 | 0.00 | 0.00 | 0.00 | 40 | 1013.5 |
| 20260507231546 | 62 | 283 | 3.0 | 10.0 | 0.00 | 0.00 | 0.00 | 40 | 1013.4 |
| 20260507230038 | 62 | 298 | 4.0 | 10.0 | 0.00 | 0.00 | 0.00 | 39 | 1013.5 |
| 20260507224545 | 62 | 9 | 5.0 | 10.0 | 0.00 | 0.00 | 0.00 | 36 | 1013.4 |
| 20260507223043 | 62 | 311 | 5.0 | 10.0 | 0.00 | 0.00 | 0.00 | 37 | 1013.4 |
| 20260507221542 | 62 | 269 | 5.0 | 12.0 | 0.00 | 0.00 | 0.00 | 39 | 1013.5 |
| 20260507220041 | 63 | 349 | 5.0 | 11.0 | 0.00 | 0.00 | 0.00 | 41 | 1013.4 |
| 20260507214538 | 62 | 309 | 6.0 | 11.0 | 0.00 | 0.00 | 0.00 | 40 | 1013.4 |
| 20260507213045 | 62 | 254 | 3.0 | 14.0 | 0.00 | 0.00 | 0.00 | 41 | 1013.3 |
| 20260507211539 | 62 | 281 | 6.0 | 10.0 | 0.00 | 0.00 | 0.00 | 40 | 1013.3 |
| 20260507210045 | 62 | 360 | 4.0 | 10.0 | 0.00 | 0.00 | 0.00 | 41 | 1013.2 |
| 20260507204545 | 62 | 298 | 7.0 | 14.0 | 0.00 | 0.00 | 0.00 | 40 | 1013.3 |